createdAt,value
2023-05-14T00:01:17.370Z,11.50
2023-05-14T00:03:20.200Z,11.40
2023-05-14T00:05:23.334Z,11.30
2023-05-14T00:07:30.843Z,11.30
2023-05-14T00:09:35.243Z,11.20
2023-05-14T00:11:38.069Z,11.20
2023-05-14T00:13:40.811Z,11.10
2023-05-14T00:15:43.678Z,11.00
2023-05-14T00:17:46.566Z,10.90
2023-05-14T00:19:49.344Z,10.80
2023-05-14T00:21:52.090Z,10.80
2023-05-14T00:23:56.173Z,10.80
2023-05-14T00:25:58.996Z,10.70
2023-05-14T00:28:01.720Z,10.60
2023-05-14T00:30:06.149Z,10.60
2023-05-14T00:32:09.300Z,10.70
2023-05-14T00:34:12.046Z,10.60
2023-05-14T00:36:14.814Z,10.50
2023-05-14T00:38:19.321Z,10.50
2023-05-14T00:40:24.002Z,10.50
2023-05-14T00:42:27.787Z,10.60
2023-05-14T00:44:30.773Z,10.80
2023-05-14T00:46:33.540Z,10.80
2023-05-14T00:48:36.353Z,10.80
2023-05-14T00:50:39.085Z,10.80
2023-05-14T00:52:42.214Z,10.90
2023-05-14T00:54:45.147Z,10.90
2023-05-14T00:56:49.267Z,11.00
2023-05-14T00:58:52.033Z,11.00
2023-05-14T01:00:54.816Z,11.00
2023-05-14T01:02:59.611Z,11.00
2023-05-14T01:05:02.374Z,11.00
2023-05-14T01:07:10.689Z,11.10
2023-05-14T01:09:16.721Z,11.00
2023-05-14T01:11:23.552Z,11.00
2023-05-14T01:13:32.725Z,11.00
2023-05-14T01:15:36.018Z,11.00
2023-05-14T01:17:41.162Z,10.80
2023-05-14T01:19:45.046Z,10.80
2023-05-14T01:21:49.153Z,10.80
2023-05-14T01:23:51.937Z,10.80
2023-05-14T01:25:54.709Z,10.60
2023-05-14T01:27:59.535Z,10.60
2023-05-14T01:30:06.363Z,10.50
2023-05-14T01:32:09.752Z,10.50
2023-05-14T01:34:12.907Z,10.50
2023-05-14T01:36:15.677Z,10.50
2023-05-14T01:38:19.786Z,10.50
2023-05-14T01:40:22.737Z,10.30
2023-05-14T01:42:25.911Z,10.10
2023-05-14T01:44:28.798Z,10.20
2023-05-14T01:46:32.708Z,10.20
2023-05-14T01:48:35.640Z,10.20
2023-05-14T01:50:38.543Z,10.20
2023-05-14T01:52:41.358Z,10.20
2023-05-14T01:54:45.502Z,10.30
2023-05-14T01:56:48.252Z,10.10
2023-05-14T01:58:51.053Z,10.10
2023-05-14T02:00:53.798Z,10.10
2023-05-14T02:02:56.657Z,10.00
2023-05-14T02:04:59.467Z,9.90
2023-05-14T02:07:02.245Z,9.90
2023-05-14T02:09:05.948Z,9.80
2023-05-14T02:11:10.040Z,9.80
2023-05-14T02:13:12.815Z,9.80
2023-05-14T02:15:15.642Z,9.80
2023-05-14T02:17:18.513Z,9.80
2023-05-14T02:19:21.272Z,9.80
2023-05-14T02:21:24.037Z,9.80
2023-05-14T02:23:37.744Z,9.80
2023-05-14T02:25:44.601Z,9.70
2023-05-14T02:27:49.462Z,9.70
2023-05-14T02:29:52.370Z,9.70
2023-05-14T02:31:55.231Z,9.80
2023-05-14T02:33:58.030Z,9.80
2023-05-14T02:36:00.811Z,9.70
2023-05-14T02:38:03.929Z,9.70
2023-05-14T02:40:08.064Z,9.70
2023-05-14T02:42:10.843Z,9.70
2023-05-14T02:44:15.006Z,9.70
2023-05-14T02:46:17.846Z,9.60
2023-05-14T02:48:20.655Z,9.60
2023-05-14T02:50:23.659Z,9.40
2023-05-14T02:52:26.634Z,9.40
2023-05-14T02:54:29.408Z,9.40
2023-05-14T02:56:32.181Z,9.30
2023-05-14T02:58:34.981Z,9.20
2023-05-14T03:00:39.144Z,9.10
2023-05-14T03:02:43.569Z,9.10
2023-05-14T03:04:46.863Z,9.00
2023-05-14T03:06:49.629Z,9.10
2023-05-14T03:08:52.405Z,9.10
2023-05-14T03:10:55.247Z,9.10
2023-05-14T03:12:58.015Z,9.00
2023-05-14T03:15:00.764Z,9.00
2023-05-14T03:17:05.300Z,9.00
2023-05-14T03:19:08.342Z,9.10
2023-05-14T03:21:11.128Z,9.10
2023-05-14T03:23:14.850Z,9.20
2023-05-14T03:25:17.667Z,9.20
2023-05-14T03:27:20.814Z,9.20
2023-05-14T03:29:23.611Z,9.20
2023-05-14T03:31:26.727Z,9.20
2023-05-14T03:33:31.155Z,9.20
2023-05-14T03:35:33.931Z,9.30
2023-05-14T03:37:36.726Z,9.30
2023-05-14T03:39:39.503Z,9.30
2023-05-14T03:41:42.448Z,9.30
2023-05-14T03:43:45.219Z,9.30
2023-05-14T03:45:52.269Z,9.30
2023-05-14T03:47:55.261Z,9.20
2023-05-14T03:49:59.557Z,9.10
2023-05-14T03:52:02.342Z,9.10
2023-05-14T03:54:05.536Z,9.10
2023-05-14T03:56:08.377Z,9.00
2023-05-14T03:58:14.042Z,8.80
2023-05-14T04:00:17.358Z,8.80
2023-05-14T04:02:20.247Z,8.90
2023-05-14T04:04:23.071Z,9.00
2023-05-14T04:06:27.450Z,8.90
2023-05-14T04:08:30.260Z,8.90
2023-05-14T04:10:33.105Z,8.90
2023-05-14T04:12:35.876Z,8.90
2023-05-14T04:14:38.676Z,9.00
2023-05-14T04:16:41.527Z,9.00
2023-05-14T04:18:44.380Z,9.10
2023-05-14T04:20:47.190Z,9.10
2023-05-14T04:22:51.312Z,9.10
2023-05-14T04:24:54.084Z,9.20
2023-05-14T04:26:56.854Z,9.20
2023-05-14T04:29:02.921Z,9.30
2023-05-14T04:31:06.007Z,9.30
2023-05-14T04:33:09.370Z,9.40
2023-05-14T04:35:12.866Z,9.30
2023-05-14T04:37:15.853Z,9.30
2023-05-14T04:39:19.972Z,9.40
2023-05-14T04:41:22.803Z,9.40
2023-05-14T04:43:25.584Z,9.50
2023-05-14T04:45:28.357Z,9.50
2023-05-14T04:47:31.162Z,9.50
2023-05-14T04:49:34.393Z,9.60
2023-05-14T04:51:37.184Z,9.70
2023-05-14T04:53:39.943Z,9.90
2023-05-14T04:55:44.067Z,10.00
2023-05-14T04:57:46.832Z,10.10
2023-05-14T04:59:49.594Z,10.20
2023-05-14T05:01:52.702Z,10.30
2023-05-14T05:03:55.550Z,10.50
2023-05-14T05:05:58.489Z,10.60
2023-05-14T05:08:01.247Z,10.70
2023-05-14T05:10:04.364Z,10.90
2023-05-14T05:12:09.282Z,11.10
2023-05-14T05:14:12.076Z,11.20
2023-05-14T05:16:14.937Z,11.40
2023-05-14T05:18:17.755Z,11.60
2023-05-14T05:20:20.772Z,11.80
2023-05-14T05:22:23.586Z,12.00
2023-05-14T05:24:26.466Z,12.10
2023-05-14T05:26:29.256Z,12.10
2023-05-14T05:28:33.377Z,12.30
2023-05-14T05:30:36.142Z,12.30
2023-05-14T05:32:38.982Z,12.50
2023-05-14T05:34:42.541Z,12.60
2023-05-14T05:36:45.307Z,12.70
2023-05-14T05:38:48.076Z,12.80
2023-05-14T05:40:51.105Z,13.00
2023-05-14T05:42:54.092Z,13.10
2023-05-14T05:44:58.423Z,13.10
2023-05-14T05:47:01.250Z,13.30
2023-05-14T05:49:04.099Z,13.40
2023-05-14T05:51:06.989Z,13.50
2023-05-14T05:53:10.142Z,13.60
2023-05-14T05:55:12.914Z,13.80
2023-05-14T05:57:15.718Z,13.90
2023-05-14T05:59:18.492Z,14.00
2023-05-14T06:01:22.700Z,14.20
2023-05-14T06:03:25.533Z,14.30
2023-05-14T06:05:28.392Z,14.50
2023-05-14T06:07:31.225Z,14.70
2023-05-14T06:09:34.003Z,14.80
2023-05-14T06:11:36.841Z,14.90
2023-05-14T06:13:39.601Z,15.00
2023-05-14T06:15:42.401Z,15.00
2023-05-14T06:17:46.549Z,15.10
2023-05-14T06:19:49.330Z,15.10
2023-05-14T06:21:52.093Z,15.10
2023-05-14T06:23:54.900Z,15.20
2023-05-14T06:25:57.702Z,15.30
2023-05-14T06:28:00.479Z,15.40
2023-05-14T06:30:03.644Z,15.50
2023-05-14T06:32:07.260Z,15.60
2023-05-14T06:34:11.622Z,15.70
2023-05-14T06:36:14.384Z,15.80
2023-05-14T06:38:17.173Z,15.80
2023-05-14T06:40:20.538Z,15.90
2023-05-14T06:42:23.368Z,16.00
2023-05-14T06:44:26.157Z,16.20
2023-05-14T06:46:28.936Z,16.30
2023-05-14T06:48:31.990Z,16.60
2023-05-14T06:50:36.111Z,16.80
2023-05-14T06:52:39.392Z,16.90
2023-05-14T06:54:42.145Z,17.10
2023-05-14T06:56:44.954Z,17.10
2023-05-14T06:58:47.762Z,17.00
2023-05-14T07:00:50.529Z,17.10
2023-05-14T07:02:53.416Z,17.20
2023-05-14T07:04:56.245Z,17.20
2023-05-14T07:07:00.390Z,17.70
2023-05-14T07:09:03.241Z,17.70
2023-05-14T07:11:06.230Z,17.60
2023-05-14T07:13:09.478Z,17.70
2023-05-14T07:15:12.859Z,17.90
2023-05-14T07:17:16.370Z,18.20
2023-05-14T07:19:19.267Z,18.30
2023-05-14T07:21:22.084Z,18.50
2023-05-14T07:23:26.228Z,18.80
2023-05-14T07:25:29.281Z,18.50
2023-05-14T07:27:33.477Z,19.10
2023-05-14T07:29:36.316Z,19.30
2023-05-14T07:31:39.137Z,19.50
2023-05-14T07:33:41.985Z,19.70
2023-05-14T07:35:44.801Z,19.70
2023-05-14T07:37:47.610Z,19.60
2023-05-14T07:39:51.734Z,19.70
2023-05-14T07:41:54.982Z,19.80
2023-05-14T07:43:58.012Z,19.90
2023-05-14T07:46:00.864Z,20.20
2023-05-14T07:48:03.840Z,20.30
2023-05-14T07:50:07.973Z,20.50
2023-05-14T07:52:11.038Z,20.30
2023-05-14T07:54:13.828Z,20.40
2023-05-14T07:56:17.942Z,20.10
2023-05-14T07:58:20.760Z,20.40
2023-05-14T08:00:23.785Z,20.50
2023-05-14T08:02:26.878Z,20.40
2023-05-14T08:04:29.809Z,20.50
2023-05-14T08:06:32.679Z,20.30
2023-05-14T08:08:36.261Z,20.80
2023-05-14T08:10:39.143Z,20.60
2023-05-14T08:12:43.478Z,20.40
2023-05-14T08:14:46.285Z,20.70
2023-05-14T08:16:49.410Z,20.60
2023-05-14T08:18:52.319Z,21.10
2023-05-14T08:20:55.128Z,21.40
2023-05-14T08:22:58.143Z,20.70
2023-05-14T08:25:03.088Z,21.50
2023-05-14T08:27:06.520Z,21.30
2023-05-14T08:29:11.230Z,21.00
2023-05-14T08:31:15.535Z,20.80
2023-05-14T08:33:19.065Z,20.60
2023-05-14T08:35:22.054Z,20.70
2023-05-14T08:37:24.818Z,20.80
2023-05-14T08:39:27.602Z,21.00
2023-05-14T08:41:30.413Z,21.10
2023-05-14T08:43:39.408Z,21.80
2023-05-14T08:45:43.687Z,22.20
2023-05-14T08:47:47.728Z,22.20
2023-05-14T08:49:58.009Z,21.60
2023-05-14T08:52:01.195Z,21.50
2023-05-14T08:54:04.069Z,22.00
2023-05-14T08:56:07.398Z,21.70
2023-05-14T08:58:10.217Z,21.60
2023-05-14T09:00:15.609Z,21.60
2023-05-14T09:02:19.926Z,21.60
2023-05-14T09:04:23.795Z,22.10
2023-05-14T09:06:26.634Z,22.30
2023-05-14T09:08:29.476Z,22.20
2023-05-14T09:10:32.513Z,22.30
2023-05-14T09:12:35.324Z,22.10
2023-05-14T09:14:38.084Z,22.20
2023-05-14T09:16:42.739Z,21.70
2023-05-14T09:18:47.145Z,21.10
2023-05-14T09:20:49.936Z,21.00
2023-05-14T09:22:54.318Z,21.30
2023-05-14T09:25:06.980Z,21.10
2023-05-14T09:27:10.944Z,21.20
2023-05-14T09:29:13.727Z,21.40
2023-05-14T09:31:16.557Z,21.60
2023-05-14T09:33:27.206Z,22.40
2023-05-14T09:35:32.400Z,22.50
2023-05-14T09:37:37.391Z,23.00
2023-05-14T09:39:40.436Z,22.90
2023-05-14T09:41:43.217Z,22.60
2023-05-14T09:43:46.007Z,22.60
2023-05-14T09:45:48.784Z,22.50
2023-05-14T09:47:53.362Z,22.40
2023-05-14T09:49:56.241Z,22.30
2023-05-14T09:52:00.345Z,22.00
2023-05-14T09:54:03.649Z,22.50
2023-05-14T09:56:06.902Z,22.80
2023-05-14T09:58:09.668Z,22.90
2023-05-14T10:00:13.464Z,22.50
2023-05-14T10:02:17.959Z,22.20
2023-05-14T10:04:20.767Z,22.30
2023-05-14T10:06:24.700Z,22.40
2023-05-14T10:08:31.811Z,22.30
2023-05-14T10:10:34.575Z,22.50
2023-05-14T10:12:39.795Z,22.40
2023-05-14T10:14:44.421Z,23.00
2023-05-14T10:16:49.261Z,23.30
2023-05-14T10:18:57.309Z,23.40
2023-05-14T10:21:04.234Z,23.50
2023-05-14T10:23:07.526Z,22.90
2023-05-14T10:25:11.766Z,23.90
2023-05-14T10:27:15.213Z,23.80
2023-05-14T10:29:18.003Z,24.10
2023-05-14T10:31:24.161Z,23.70
2023-05-14T10:33:27.101Z,23.70
2023-05-14T10:35:29.871Z,24.20
2023-05-14T10:37:32.675Z,24.20
2023-05-14T10:39:42.828Z,23.90
2023-05-14T10:41:46.965Z,24.10
2023-05-14T10:43:49.734Z,23.90
2023-05-14T10:45:53.051Z,23.80
2023-05-14T10:47:55.840Z,24.10
2023-05-14T10:50:00.038Z,24.10
2023-05-14T10:52:02.854Z,23.90
2023-05-14T10:54:05.699Z,23.70
2023-05-14T10:56:09.321Z,24.00
2023-05-14T10:58:13.478Z,24.20
2023-05-14T11:00:17.005Z,24.10
2023-05-14T11:02:25.362Z,24.30
2023-05-14T11:04:29.096Z,23.90
2023-05-14T11:06:32.212Z,23.90
2023-05-14T11:08:35.040Z,23.70
2023-05-14T11:10:38.893Z,23.70
2023-05-14T11:12:43.241Z,24.80
2023-05-14T11:14:47.823Z,25.20
2023-05-14T11:16:50.863Z,24.90
2023-05-14T11:18:54.894Z,23.60
2023-05-14T11:21:00.185Z,22.60
2023-05-14T11:23:03.475Z,22.90
2023-05-14T11:25:07.319Z,23.10
2023-05-14T11:27:10.310Z,23.30
2023-05-14T11:29:13.120Z,23.40
2023-05-14T11:31:17.256Z,23.70
2023-05-14T11:33:20.378Z,23.60
2023-05-14T11:35:23.258Z,23.40
2023-05-14T11:37:26.049Z,23.70
2023-05-14T11:39:28.864Z,23.90
2023-05-14T11:41:31.677Z,24.20
2023-05-14T11:43:35.062Z,24.70
2023-05-14T11:45:37.851Z,25.30
2023-05-14T11:47:42.215Z,25.20
2023-05-14T11:49:45.394Z,26.20
2023-05-14T11:51:48.179Z,25.20
2023-05-14T11:53:50.957Z,26.50
2023-05-14T11:55:54.189Z,26.40
2023-05-14T11:57:56.963Z,26.90
2023-05-14T11:59:59.740Z,26.90
2023-05-14T12:02:02.955Z,27.40
2023-05-14T12:04:07.514Z,27.70
2023-05-14T12:06:10.395Z,26.90
2023-05-14T12:08:22.701Z,26.20
2023-05-14T12:10:25.977Z,25.50
2023-05-14T12:12:28.967Z,25.70
2023-05-14T12:14:31.771Z,26.40
2023-05-14T12:16:36.849Z,26.60
2023-05-14T12:18:41.222Z,27.00
2023-05-14T12:20:49.313Z,27.40
2023-05-14T12:22:52.072Z,27.80
2023-05-14T12:24:55.056Z,27.50
2023-05-14T12:26:57.971Z,27.90
2023-05-14T12:29:01.009Z,27.60
2023-05-14T12:31:04.259Z,27.70
2023-05-14T12:33:07.142Z,28.20
2023-05-14T12:35:10.234Z,28.30
2023-05-14T12:37:14.407Z,27.30
2023-05-14T12:39:17.204Z,27.90
2023-05-14T12:41:19.985Z,28.20
2023-05-14T12:43:22.857Z,28.10
2023-05-14T12:45:25.879Z,27.80
2023-05-14T12:47:28.842Z,27.90
2023-05-14T12:49:31.660Z,27.70
2023-05-14T12:51:35.053Z,27.70
2023-05-14T12:53:39.243Z,27.40
2023-05-14T12:55:42.015Z,27.40
2023-05-14T12:57:44.927Z,27.60
2023-05-14T12:59:47.686Z,28.20
2023-05-14T13:01:50.475Z,27.50
2023-05-14T13:03:53.324Z,27.10
2023-05-14T13:05:56.157Z,27.40
2023-05-14T13:07:59.969Z,27.20
2023-05-14T13:10:05.557Z,26.50
2023-05-14T13:12:09.085Z,26.80
2023-05-14T13:14:11.853Z,27.00
2023-05-14T13:16:16.846Z,27.20
2023-05-14T13:18:19.839Z,27.00
2023-05-14T13:20:23.602Z,27.50
2023-05-14T13:22:26.512Z,27.60
2023-05-14T13:24:29.294Z,27.20
2023-05-14T13:26:33.384Z,26.50
2023-05-14T13:28:36.179Z,25.90
2023-05-14T13:30:39.220Z,25.80
2023-05-14T13:32:42.388Z,25.50
2023-05-14T13:34:45.270Z,25.40
2023-05-14T13:36:49.718Z,25.20
2023-05-14T13:38:52.516Z,26.10
2023-05-14T13:40:57.296Z,25.40
2023-05-14T13:43:01.430Z,25.00
2023-05-14T13:45:04.496Z,24.80
2023-05-14T13:47:07.793Z,24.70
2023-05-14T13:49:11.122Z,24.90
2023-05-14T13:51:13.899Z,25.30
2023-05-14T13:53:17.022Z,24.50
2023-05-14T13:55:19.786Z,24.30
2023-05-14T13:57:22.949Z,24.20
2023-05-14T13:59:27.768Z,23.90
2023-05-14T14:01:31.686Z,23.80
2023-05-14T14:03:34.680Z,23.60
2023-05-14T14:05:37.596Z,23.40
2023-05-14T14:07:40.723Z,23.30
2023-05-14T14:09:43.530Z,23.10
2023-05-14T14:11:46.363Z,23.30
2023-05-14T14:13:49.193Z,23.20
2023-05-14T14:15:53.376Z,23.20
2023-05-14T14:17:56.311Z,23.30
2023-05-14T14:19:59.141Z,23.20
2023-05-14T14:22:01.945Z,23.40
2023-05-14T14:24:05.014Z,23.20
2023-05-14T14:26:07.866Z,23.10
2023-05-14T14:28:10.678Z,22.90
2023-05-14T14:30:16.484Z,23.00
2023-05-14T14:32:21.183Z,22.70
2023-05-14T14:34:23.963Z,22.70
2023-05-14T14:36:26.734Z,22.70
2023-05-14T14:38:29.519Z,22.70
2023-05-14T14:40:34.064Z,23.00
2023-05-14T14:42:37.292Z,23.70
2023-05-14T14:44:40.078Z,23.80
2023-05-14T14:46:43.321Z,23.40
2023-05-14T14:48:47.463Z,22.90
2023-05-14T14:50:50.249Z,23.40
2023-05-14T14:52:53.028Z,23.80
2023-05-14T14:54:55.989Z,23.70
2023-05-14T14:56:58.781Z,23.40
2023-05-14T14:59:02.326Z,23.70
2023-05-14T15:01:05.335Z,23.80
2023-05-14T15:03:09.202Z,23.70
2023-05-14T15:05:13.461Z,24.30
2023-05-14T15:07:17.372Z,24.70
2023-05-14T15:09:20.141Z,24.90
2023-05-14T15:11:23.119Z,24.30
2023-05-14T15:13:26.931Z,24.80
2023-05-14T15:15:29.706Z,24.70
2023-05-14T15:17:32.544Z,24.40
2023-05-14T15:19:35.327Z,24.00
2023-05-14T15:21:39.457Z,24.10
2023-05-14T15:23:42.232Z,23.90
2023-05-14T15:25:45.184Z,24.20
2023-05-14T15:27:47.974Z,23.60
2023-05-14T15:29:50.765Z,24.00
2023-05-14T15:31:53.591Z,24.00
2023-05-14T15:33:56.563Z,24.10
2023-05-14T15:35:59.367Z,23.80
2023-05-14T15:38:03.510Z,23.80
2023-05-14T15:40:08.040Z,23.80
2023-05-14T15:42:10.937Z,23.30
2023-05-14T15:44:13.727Z,23.20
2023-05-14T15:46:16.553Z,23.40
2023-05-14T15:48:19.401Z,23.50
2023-05-14T15:50:22.552Z,23.60
2023-05-14T15:52:25.829Z,23.10
2023-05-14T15:54:29.970Z,23.00
2023-05-14T15:56:32.745Z,22.90
2023-05-14T15:58:35.524Z,23.00
2023-05-14T16:00:38.294Z,23.10
2023-05-14T16:02:41.140Z,22.70
2023-05-14T16:04:45.087Z,22.60
2023-05-14T16:06:47.870Z,22.70
2023-05-14T16:08:51.048Z,22.90
2023-05-14T16:10:55.155Z,22.70
2023-05-14T16:12:57.973Z,22.20
2023-05-14T16:15:00.945Z,21.90
2023-05-14T16:17:03.829Z,21.70
2023-05-14T16:19:06.700Z,21.80
2023-05-14T16:21:09.558Z,21.80
2023-05-14T16:23:12.354Z,21.60
2023-05-14T16:25:15.231Z,21.90
2023-05-14T16:27:19.474Z,21.90
2023-05-14T16:29:22.355Z,21.90
2023-05-14T16:31:25.189Z,21.70
2023-05-14T16:33:27.985Z,21.60
2023-05-14T16:35:30.786Z,21.80
2023-05-14T16:37:33.546Z,21.60
2023-05-14T16:39:36.291Z,21.40
2023-05-14T16:41:39.087Z,21.60
2023-05-14T16:43:43.212Z,21.70
2023-05-14T16:45:46.087Z,21.70
2023-05-14T16:47:48.973Z,21.60
2023-05-14T16:49:51.770Z,21.70
2023-05-14T16:51:54.546Z,21.40
2023-05-14T16:53:57.359Z,21.40
2023-05-14T16:56:00.156Z,21.60
2023-05-14T16:58:02.917Z,21.40
2023-05-14T17:00:09.484Z,21.10
2023-05-14T17:02:12.340Z,20.90
2023-05-14T17:04:15.159Z,20.80
2023-05-14T17:06:17.936Z,20.70
2023-05-14T17:08:20.991Z,20.60
2023-05-14T17:10:25.154Z,20.60
2023-05-14T17:12:27.989Z,20.60
2023-05-14T17:14:31.554Z,20.50
2023-05-14T17:16:35.833Z,20.40
2023-05-14T17:18:40.058Z,20.30
2023-05-14T17:20:43.016Z,20.20
2023-05-14T17:22:45.952Z,20.20
2023-05-14T17:24:48.770Z,20.20
2023-05-14T17:26:51.689Z,20.10
2023-05-14T17:28:54.455Z,20.10
2023-05-14T17:30:57.345Z,20.00
2023-05-14T17:33:01.628Z,20.00
2023-05-14T17:35:05.274Z,20.00
2023-05-14T17:37:08.073Z,19.90
2023-05-14T17:39:10.857Z,19.90
2023-05-14T17:41:13.665Z,19.70
2023-05-14T17:43:16.423Z,19.70
2023-05-14T17:45:20.656Z,19.80
2023-05-14T17:47:23.511Z,19.70
2023-05-14T17:49:27.625Z,19.60
2023-05-14T17:51:31.113Z,19.40
2023-05-14T17:53:33.883Z,19.40
2023-05-14T17:55:42.432Z,19.30
2023-05-14T17:57:45.356Z,19.30
2023-05-14T17:59:48.141Z,19.20
2023-05-14T18:01:50.907Z,19.20
2023-05-14T18:03:53.760Z,19.20
2023-05-14T18:05:57.900Z,19.20
2023-05-14T18:08:00.749Z,19.10
2023-05-14T18:10:03.701Z,18.90
2023-05-14T18:12:07.166Z,18.80
2023-05-14T18:14:09.876Z,18.70
2023-05-14T18:16:12.558Z,18.70
2023-05-14T18:18:17.085Z,18.60
2023-05-14T18:20:19.859Z,18.50
2023-05-14T18:22:23.925Z,18.50
2023-05-14T18:24:27.120Z,18.40
2023-05-14T18:26:30.800Z,18.30
2023-05-14T18:28:34.364Z,18.10
2023-05-14T18:30:37.203Z,18.10
2023-05-14T18:32:40.057Z,17.90
2023-05-14T18:34:42.753Z,17.70
2023-05-14T18:36:45.465Z,17.70
2023-05-14T18:38:49.516Z,17.80
2023-05-14T18:40:52.238Z,17.80
2023-05-14T18:42:56.607Z,17.70
2023-05-14T18:44:59.658Z,17.70
2023-05-14T18:47:02.374Z,17.70
2023-05-14T18:49:05.118Z,17.60
2023-05-14T18:51:07.832Z,17.50
2023-05-14T18:53:10.563Z,17.50
2023-05-14T18:55:14.685Z,17.40
2023-05-14T18:57:17.421Z,17.40
2023-05-14T18:59:20.178Z,17.20
2023-05-14T19:01:25.412Z,17.20
2023-05-14T19:03:28.356Z,17.00
2023-05-14T19:05:31.231Z,17.00
2023-05-14T19:07:34.012Z,17.00
2023-05-14T19:09:36.850Z,17.00
2023-05-14T19:11:40.974Z,16.80
2023-05-14T19:13:46.602Z,16.70
2023-05-14T19:15:49.413Z,16.60
2023-05-14T19:17:53.886Z,16.50
2023-05-14T19:19:56.713Z,16.50
2023-05-14T19:21:59.499Z,16.40
2023-05-14T19:24:02.278Z,16.30
2023-05-14T19:26:06.777Z,16.20
2023-05-14T19:28:11.004Z,16.20
2023-05-14T19:30:14.795Z,16.10
2023-05-14T19:32:17.588Z,16.10
2023-05-14T19:34:20.468Z,16.00
2023-05-14T19:36:23.238Z,15.90
2023-05-14T19:38:26.221Z,16.00
2023-05-14T19:40:28.982Z,15.90
2023-05-14T19:42:31.788Z,15.90
2023-05-14T19:44:35.896Z,15.90
2023-05-14T19:46:38.692Z,16.00
2023-05-14T19:48:41.470Z,15.90
2023-05-14T19:50:44.247Z,15.90
2023-05-14T19:52:47.033Z,15.80
2023-05-14T19:54:49.883Z,15.90
2023-05-14T19:56:52.684Z,15.80
2023-05-14T19:58:55.475Z,15.80
2023-05-14T20:01:00.688Z,15.70
2023-05-14T20:03:04.089Z,15.70
2023-05-14T20:05:08.996Z,15.70
2023-05-14T20:07:11.860Z,15.70
2023-05-14T20:09:15.404Z,15.60
2023-05-14T20:11:19.524Z,15.60
2023-05-14T20:13:24.495Z,15.50
2023-05-14T20:15:28.353Z,15.40
2023-05-14T20:17:32.492Z,15.30
2023-05-14T20:19:35.972Z,15.30
2023-05-14T20:21:38.736Z,15.20
2023-05-14T20:23:41.772Z,15.20
2023-05-14T20:25:44.840Z,15.20
2023-05-14T20:27:47.624Z,15.20
2023-05-14T20:29:51.445Z,15.10
2023-05-14T20:31:54.228Z,15.10
2023-05-14T20:33:58.357Z,15.10
2023-05-14T20:36:03.528Z,15.10
2023-05-14T20:38:06.556Z,15.10
2023-05-14T20:40:13.143Z,15.10
2023-05-14T20:42:16.010Z,15.00
2023-05-14T20:44:20.590Z,14.90
2023-05-14T20:46:23.577Z,14.80
2023-05-14T20:48:26.438Z,14.80
2023-05-14T20:50:30.542Z,14.80
2023-05-14T20:52:33.325Z,14.70
2023-05-14T20:54:36.597Z,14.70
2023-05-14T20:56:39.381Z,14.60
2023-05-14T20:58:42.135Z,14.60
2023-05-14T21:00:44.947Z,14.60
2023-05-14T21:02:49.036Z,14.60
2023-05-14T21:04:52.223Z,14.60
2023-05-14T21:06:56.443Z,14.50
2023-05-14T21:08:59.174Z,14.50
2023-05-14T21:11:01.916Z,14.40
2023-05-14T21:13:04.657Z,14.40
2023-05-14T21:15:08.563Z,14.40
2023-05-14T21:17:11.360Z,14.40
2023-05-14T21:19:15.387Z,14.30
2023-05-14T21:21:18.296Z,14.20
2023-05-14T21:23:22.377Z,14.20
2023-05-14T21:25:25.336Z,14.10
2023-05-14T21:27:31.317Z,14.10
2023-05-14T21:29:34.075Z,14.00
2023-05-14T21:31:36.879Z,13.70
2023-05-14T21:33:40.862Z,13.40
2023-05-14T21:35:43.734Z,13.50
2023-05-14T21:37:46.519Z,13.50
2023-05-14T21:39:50.875Z,13.50
2023-05-14T21:41:53.648Z,13.50
2023-05-14T21:43:56.649Z,13.50
2023-05-14T21:45:59.487Z,13.50
2023-05-14T21:48:02.440Z,13.60
2023-05-14T21:50:06.857Z,13.60
2023-05-14T21:52:09.682Z,13.60
2023-05-14T21:54:14.012Z,13.60
2023-05-14T21:56:18.160Z,13.50
2023-05-14T21:58:21.182Z,13.40
2023-05-14T22:00:24.130Z,13.40
2023-05-14T22:02:27.331Z,13.30
2023-05-14T22:04:30.357Z,13.30
2023-05-14T22:06:33.685Z,13.20
2023-05-14T22:08:36.456Z,13.20
2023-05-14T22:10:39.281Z,13.20
2023-05-14T22:12:43.749Z,13.20
2023-05-14T22:14:47.345Z,13.30
2023-05-14T22:16:50.668Z,13.20
2023-05-14T22:18:53.616Z,13.10
2023-05-14T22:20:56.430Z,13.00
2023-05-14T22:22:59.185Z,12.90
2023-05-14T22:25:01.986Z,12.90
2023-05-14T22:27:05.138Z,13.00
2023-05-14T22:29:09.240Z,13.00
2023-05-14T22:31:12.055Z,13.00
2023-05-14T22:33:14.943Z,13.00
2023-05-14T22:35:18.200Z,12.90
2023-05-14T22:37:21.139Z,13.00
2023-05-14T22:39:23.931Z,12.90
2023-05-14T22:41:26.720Z,12.90
2023-05-14T22:43:29.553Z,12.90
2023-05-14T22:45:33.706Z,12.80
2023-05-14T22:47:36.525Z,12.80
2023-05-14T22:49:39.766Z,12.70
2023-05-14T22:51:42.531Z,12.70
2023-05-14T22:53:45.417Z,12.60
2023-05-14T22:55:48.604Z,12.60
2023-05-14T22:57:51.391Z,12.50
2023-05-14T22:59:54.167Z,12.50
2023-05-14T23:01:58.327Z,12.50
2023-05-14T23:04:01.176Z,12.50
2023-05-14T23:06:04.041Z,12.40
2023-05-14T23:08:06.954Z,12.30
2023-05-14T23:10:11.340Z,12.30
2023-05-14T23:12:14.153Z,12.20
2023-05-14T23:14:17.857Z,12.20
2023-05-14T23:16:20.869Z,12.20
2023-05-14T23:18:26.237Z,12.30
2023-05-14T23:20:29.167Z,12.20
2023-05-14T23:22:31.954Z,12.30
2023-05-14T23:24:34.743Z,12.30
2023-05-14T23:26:37.518Z,12.40
2023-05-14T23:28:40.270Z,12.40
2023-05-14T23:30:43.055Z,12.40
2023-05-14T23:32:45.963Z,12.30
2023-05-14T23:34:50.207Z,12.30
2023-05-14T23:36:53.278Z,12.30
2023-05-14T23:38:55.990Z,12.20
2023-05-14T23:40:58.743Z,12.10
2023-05-14T23:43:01.486Z,12.10
2023-05-14T23:45:05.223Z,12.10
2023-05-14T23:47:08.806Z,11.90
2023-05-14T23:49:11.607Z,11.90
2023-05-14T23:51:15.672Z,11.90
2023-05-14T23:53:18.460Z,12.00
2023-05-14T23:55:21.350Z,12.00
2023-05-14T23:57:24.430Z,12.00
2023-05-14T23:59:27.211Z,12.00
